createdAt,value
2022-07-29T00:02:27.837Z,69.70
2022-07-29T00:04:54.716Z,69.20
2022-07-29T00:07:21.566Z,69.40
2022-07-29T00:09:51.811Z,68.30
2022-07-29T00:12:25.082Z,67.50
2022-07-29T00:14:53.589Z,67.00
2022-07-29T00:17:20.390Z,69.40
2022-07-29T00:19:47.237Z,70.20
2022-07-29T00:22:14.007Z,70.20
2022-07-29T00:24:40.795Z,71.00
2022-07-29T00:27:07.657Z,71.10
2022-07-29T00:29:35.002Z,68.40
2022-07-29T00:32:03.194Z,69.10
2022-07-29T00:34:48.807Z,68.80
2022-07-29T00:37:15.618Z,69.50
2022-07-29T00:39:42.373Z,70.60
2022-07-29T00:42:10.338Z,70.40
2022-07-29T00:44:38.987Z,71.10
2022-07-29T00:47:06.197Z,71.10
2022-07-29T00:49:34.238Z,71.50
2022-07-29T00:52:07.766Z,71.90
2022-07-29T00:54:34.959Z,72.00
2022-07-29T00:57:02.821Z,72.00
2022-07-29T00:59:35.294Z,69.20
2022-07-29T01:02:03.898Z,68.80
2022-07-29T01:04:32.137Z,68.50
2022-07-29T01:07:00.196Z,69.10
2022-07-29T01:09:42.207Z,70.10
2022-07-29T01:12:19.793Z,69.70
2022-07-29T01:14:48.506Z,70.40
2022-07-29T01:17:38.614Z,70.50
2022-07-29T01:20:20.950Z,71.00
2022-07-29T01:23:04.148Z,71.50
2022-07-29T01:25:56.114Z,70.40
2022-07-29T01:28:32.805Z,69.80
2022-07-29T01:31:01.654Z,71.40
2022-07-29T01:33:50.796Z,71.00
2022-07-29T01:36:29.288Z,70.30
2022-07-29T01:39:06.156Z,70.00
2022-07-29T01:41:36.750Z,70.70
2022-07-29T01:44:18.433Z,71.90
2022-07-29T01:46:53.459Z,71.80
2022-07-29T01:49:28.031Z,71.20
2022-07-29T01:52:04.429Z,69.40
2022-07-29T01:54:43.916Z,69.80
2022-07-29T01:57:18.527Z,69.70
2022-07-29T01:59:47.338Z,69.20
2022-07-29T02:02:17.593Z,68.40
2022-07-29T02:04:49.252Z,67.90
2022-07-29T02:07:20.272Z,67.40
2022-07-29T02:09:50.300Z,69.60
2022-07-29T02:12:20.275Z,70.00
2022-07-29T02:14:51.433Z,69.30
2022-07-29T02:17:28.889Z,70.00
2022-07-29T02:20:02.454Z,70.10
2022-07-29T02:22:32.254Z,70.90
2022-07-29T02:25:01.211Z,69.30
2022-07-29T02:27:34.421Z,69.00
2022-07-29T02:30:03.909Z,67.90
2022-07-29T02:32:33.455Z,69.00
2022-07-29T02:35:02.589Z,68.30
2022-07-29T02:37:31.586Z,68.80
2022-07-29T02:39:59.844Z,68.80
2022-07-29T02:42:28.477Z,69.10
2022-07-29T02:44:55.871Z,68.70
2022-07-29T02:47:48.624Z,68.60
2022-07-29T02:50:22.054Z,69.20
2022-07-29T02:53:02.043Z,70.60
2022-07-29T02:55:40.409Z,71.20
2022-07-29T02:58:29.241Z,70.60
2022-07-29T03:01:05.227Z,70.00
2022-07-29T03:03:38.232Z,69.90
2022-07-29T03:06:05.959Z,70.20
2022-07-29T03:08:34.334Z,71.30
2022-07-29T03:11:02.572Z,71.60
2022-07-29T03:13:31.389Z,71.80
2022-07-29T03:15:59.632Z,71.80
2022-07-29T03:18:27.214Z,71.80
2022-07-29T03:20:54.098Z,71.00
2022-07-29T03:23:23.668Z,71.70
2022-07-29T03:25:51.274Z,72.10
2022-07-29T03:28:18.122Z,72.80
2022-07-29T03:30:46.489Z,72.80
2022-07-29T03:33:13.874Z,72.80
2022-07-29T03:35:40.831Z,72.90
2022-07-29T03:38:08.211Z,72.90
2022-07-29T03:41:02.599Z,72.60
2022-07-29T03:43:32.962Z,73.30
2022-07-29T03:46:01.600Z,73.10
2022-07-29T03:48:31.495Z,72.80
2022-07-29T03:50:58.319Z,73.40
2022-07-29T03:53:25.158Z,73.60
2022-07-29T03:55:55.734Z,73.20
2022-07-29T03:58:24.096Z,73.70
2022-07-29T04:00:51.342Z,74.20
2022-07-29T04:03:18.484Z,74.80
2022-07-29T04:05:45.338Z,73.80
2022-07-29T04:08:12.123Z,74.00
2022-07-29T04:10:39.275Z,74.50
2022-07-29T04:13:06.385Z,73.50
2022-07-29T04:15:33.222Z,73.70
2022-07-29T04:18:00.550Z,74.00
2022-07-29T04:20:27.641Z,74.10
2022-07-29T04:22:54.386Z,73.70
2022-07-29T04:25:21.331Z,73.70
2022-07-29T04:28:03.592Z,73.50
2022-07-29T04:30:32.295Z,73.20
2022-07-29T04:32:59.600Z,73.90
2022-07-29T04:35:26.456Z,73.60
2022-07-29T04:37:53.593Z,74.60
2022-07-29T04:40:20.772Z,74.50
2022-07-29T04:42:47.877Z,74.40
2022-07-29T04:45:15.229Z,73.70
2022-07-29T04:47:42.954Z,74.10
2022-07-29T04:50:10.581Z,74.40
2022-07-29T04:52:37.682Z,72.80
2022-07-29T04:55:06.005Z,72.00
2022-07-29T04:57:33.278Z,72.50
2022-07-29T05:00:00.076Z,72.20
2022-07-29T05:02:26.880Z,71.90
2022-07-29T05:04:53.846Z,71.50
2022-07-29T05:07:20.720Z,70.80
2022-07-29T05:09:48.165Z,72.60
2022-07-29T05:12:14.985Z,70.90
2022-07-29T05:14:41.784Z,70.60
2022-07-29T05:17:08.545Z,71.70
2022-07-29T05:19:39.441Z,72.30
2022-07-29T05:22:07.042Z,71.60
2022-07-29T05:24:33.843Z,70.40
2022-07-29T05:27:00.645Z,70.70
2022-07-29T05:29:42.814Z,69.70
2022-07-29T05:32:10.365Z,68.80
2022-07-29T05:34:37.121Z,69.90
2022-07-29T05:37:16.775Z,69.80
2022-07-29T05:39:48.661Z,69.70
2022-07-29T05:42:17.622Z,69.80
2022-07-29T05:44:44.405Z,69.80
2022-07-29T05:47:11.371Z,69.70
2022-07-29T05:49:38.241Z,67.40
2022-07-29T05:52:05.414Z,65.70
2022-07-29T05:54:32.182Z,65.70
2022-07-29T05:56:58.983Z,65.50
2022-07-29T05:59:30.157Z,66.50
2022-07-29T06:01:58.136Z,66.60
2022-07-29T06:04:25.291Z,68.50
2022-07-29T06:06:52.247Z,68.20
2022-07-29T06:09:19.101Z,69.00
2022-07-29T06:11:45.925Z,67.60
2022-07-29T06:14:12.896Z,67.00
2022-07-29T06:16:39.903Z,67.90
2022-07-29T06:19:06.782Z,69.00
2022-07-29T06:21:34.584Z,68.70
2022-07-29T06:24:05.946Z,67.80
2022-07-29T06:26:36.504Z,65.90
2022-07-29T06:29:11.600Z,64.40
2022-07-29T06:31:38.849Z,64.40
2022-07-29T06:34:05.636Z,64.30
2022-07-29T06:36:36.758Z,64.50
2022-07-29T06:39:08.648Z,64.10
2022-07-29T06:41:35.477Z,65.00
2022-07-29T06:44:02.393Z,64.60
2022-07-29T06:46:29.825Z,66.90
2022-07-29T06:48:56.830Z,68.60
2022-07-29T06:51:24.160Z,67.50
2022-07-29T06:54:01.544Z,65.80
2022-07-29T06:56:39.284Z,65.00
2022-07-29T06:59:09.373Z,63.50
2022-07-29T07:01:37.993Z,63.10
2022-07-29T07:04:05.082Z,63.10
2022-07-29T07:06:31.998Z,63.10
2022-07-29T07:08:58.758Z,62.90
2022-07-29T07:11:25.558Z,62.40
2022-07-29T07:13:52.318Z,62.00
2022-07-29T07:16:19.197Z,61.60
2022-07-29T07:18:46.346Z,61.10
2022-07-29T07:21:18.980Z,60.20
2022-07-29T07:23:47.142Z,60.20
2022-07-29T07:26:13.898Z,60.50
2022-07-29T07:28:40.678Z,59.30
2022-07-29T07:31:07.528Z,59.00
2022-07-29T07:33:34.323Z,58.60
2022-07-29T07:36:01.128Z,58.70
2022-07-29T07:38:27.904Z,58.10
2022-07-29T07:40:54.702Z,57.60
2022-07-29T07:43:22.743Z,56.90
2022-07-29T07:45:49.553Z,57.40
2022-07-29T07:48:16.439Z,57.50
2022-07-29T07:50:44.602Z,58.40
2022-07-29T07:53:11.753Z,58.30
2022-07-29T07:58:29.573Z,60.00
2022-07-29T08:00:56.460Z,59.70
2022-07-29T08:03:23.232Z,61.00
2022-07-29T08:05:51.975Z,61.40
2022-07-29T08:08:19.117Z,61.30
2022-07-29T08:10:54.794Z,61.60
2022-07-29T08:13:22.970Z,62.70
2022-07-29T08:15:58.593Z,63.80
2022-07-29T08:18:26.892Z,64.40
2022-07-29T08:20:53.941Z,65.50
2022-07-29T08:23:20.844Z,66.00
2022-07-29T08:25:50.165Z,66.60
2022-07-29T08:28:17.981Z,67.00
2022-07-29T08:30:44.862Z,67.00
2022-07-29T08:33:11.820Z,67.50
2022-07-29T08:35:40.065Z,69.00
2022-07-29T08:38:07.059Z,70.40
2022-07-29T08:40:35.141Z,71.70
2022-07-29T08:43:08.930Z,71.70
2022-07-29T08:45:47.492Z,72.80
2022-07-29T08:48:17.091Z,72.00
2022-07-29T08:50:46.572Z,73.20
2022-07-29T08:53:16.065Z,73.80
2022-07-29T08:55:45.463Z,74.70
2022-07-29T08:58:15.004Z,73.10
2022-07-29T09:00:46.318Z,73.60
2022-07-29T09:03:19.139Z,73.50
2022-07-29T09:05:48.309Z,73.50
2022-07-29T09:08:16.936Z,73.80
2022-07-29T09:10:44.668Z,72.20
2022-07-29T09:13:11.441Z,71.70
2022-07-29T09:15:38.222Z,70.10
2022-07-29T09:18:04.966Z,71.00
2022-07-29T09:20:51.715Z,71.70
2022-07-29T09:23:23.931Z,72.50
2022-07-29T09:25:51.637Z,70.90
2022-07-29T09:28:19.365Z,68.40
2022-07-29T09:30:57.410Z,67.80
2022-07-29T09:33:31.632Z,67.80
2022-07-29T09:36:10.603Z,67.60
2022-07-29T09:38:40.320Z,66.20
2022-07-29T09:41:08.980Z,63.70
2022-07-29T09:43:35.816Z,64.00
2022-07-29T09:46:13.226Z,65.50
2022-07-29T09:48:40.602Z,64.30
2022-07-29T09:51:24.120Z,64.60
2022-07-29T09:53:55.523Z,61.80
2022-07-29T09:56:40.411Z,63.00
2022-07-29T09:59:09.027Z,61.10
2022-07-29T10:01:36.950Z,60.10
2022-07-29T10:04:04.074Z,59.70
2022-07-29T10:06:30.865Z,59.50
2022-07-29T10:09:11.857Z,58.90
2022-07-29T10:11:49.353Z,59.60
2022-07-29T10:14:17.082Z,58.70
2022-07-29T10:16:44.363Z,57.90
2022-07-29T10:19:11.430Z,58.90
2022-07-29T10:21:40.678Z,59.50
2022-07-29T10:24:14.814Z,57.00
2022-07-29T10:26:43.224Z,56.90
2022-07-29T10:29:10.569Z,56.60
2022-07-29T10:32:08.443Z,57.20
2022-07-29T10:35:18.189Z,56.90
2022-07-29T10:38:17.298Z,57.50
2022-07-29T10:41:22.595Z,55.10
2022-07-29T10:43:51.114Z,54.70
2022-07-29T10:46:19.417Z,53.30
2022-07-29T10:49:05.396Z,51.40
2022-07-29T10:51:55.832Z,50.80
2022-07-29T10:54:42.457Z,50.10
2022-07-29T10:57:25.638Z,51.90
2022-07-29T11:00:16.857Z,50.60
2022-07-29T11:02:46.439Z,50.30
2022-07-29T11:05:19.840Z,49.00
2022-07-29T11:08:19.509Z,47.00
2022-07-29T11:10:49.045Z,47.60
2022-07-29T11:13:49.281Z,45.40
2022-07-29T11:16:17.862Z,46.90
2022-07-29T11:19:13.171Z,45.30
2022-07-29T11:21:53.496Z,44.40
2022-07-29T11:24:28.724Z,46.10
2022-07-29T11:27:18.423Z,47.10
2022-07-29T11:29:53.985Z,45.80
2022-07-29T11:32:23.407Z,44.90
2022-07-29T11:35:17.050Z,44.90
2022-07-29T11:37:52.170Z,46.50
2022-07-29T11:40:22.831Z,45.40
2022-07-29T11:42:52.189Z,45.60
2022-07-29T11:45:43.190Z,45.20
2022-07-29T11:48:29.608Z,44.70
2022-07-29T11:50:59.501Z,45.00
2022-07-29T11:53:28.960Z,43.20
2022-07-29T11:56:00.402Z,43.60
2022-07-29T11:58:28.453Z,44.90
2022-07-29T12:00:56.262Z,42.20
2022-07-29T12:03:35.138Z,44.10
2022-07-29T12:06:12.237Z,44.50
2022-07-29T12:08:44.673Z,45.10
2022-07-29T12:11:22.734Z,44.90
2022-07-29T12:13:51.604Z,44.10
2022-07-29T12:16:25.595Z,44.50
2022-07-29T12:19:02.473Z,42.90
2022-07-29T12:21:53.664Z,44.20
2022-07-29T12:24:27.447Z,44.70
2022-07-29T12:26:57.299Z,44.50
2022-07-29T12:29:34.717Z,44.10
2022-07-29T12:32:04.302Z,44.20
2022-07-29T12:34:31.875Z,45.20
2022-07-29T12:36:58.790Z,45.20
2022-07-29T12:39:28.674Z,45.30
2022-07-29T12:42:04.829Z,45.80
2022-07-29T12:44:45.710Z,45.30
2022-07-29T12:47:12.624Z,46.60
2022-07-29T12:49:39.482Z,46.70
2022-07-29T12:52:28.100Z,45.30
2022-07-29T12:54:54.922Z,45.40
2022-07-29T12:57:22.049Z,45.00
2022-07-29T13:00:05.631Z,46.00
2022-07-29T13:02:32.763Z,43.60
2022-07-29T13:05:01.733Z,44.90
2022-07-29T13:07:54.344Z,45.50
2022-07-29T13:10:23.915Z,44.00
2022-07-29T13:13:10.613Z,43.20
2022-07-29T13:15:39.443Z,43.40
2022-07-29T13:18:26.622Z,41.40
2022-07-29T13:20:53.397Z,43.30
2022-07-29T13:23:20.150Z,44.10
2022-07-29T13:25:46.931Z,43.00
2022-07-29T13:28:13.665Z,43.20
2022-07-29T13:30:44.877Z,43.60
2022-07-29T13:33:11.882Z,43.50
2022-07-29T13:35:39.959Z,42.90
2022-07-29T13:38:07.076Z,43.30
2022-07-29T13:40:36.290Z,43.30
2022-07-29T13:43:03.093Z,43.70
2022-07-29T13:45:30.941Z,45.00
2022-07-29T13:47:57.920Z,44.90
2022-07-29T13:50:24.762Z,43.60
2022-07-29T13:52:52.061Z,43.60
2022-07-29T13:55:19.197Z,44.60
2022-07-29T13:57:45.957Z,45.20
2022-07-29T14:00:14.371Z,45.20
2022-07-29T14:02:41.290Z,45.50
2022-07-29T14:05:09.067Z,45.30
2022-07-29T14:07:36.151Z,45.70
2022-07-29T14:10:03.765Z,45.50
2022-07-29T14:12:30.847Z,45.40
2022-07-29T14:14:58.037Z,46.70
2022-07-29T14:17:25.118Z,46.30
2022-07-29T14:19:51.840Z,46.00
2022-07-29T14:22:19.933Z,44.70
2022-07-29T14:24:49.876Z,44.80
2022-07-29T14:27:16.653Z,44.90
2022-07-29T14:29:43.513Z,45.60
2022-07-29T14:32:15.772Z,44.40
2022-07-29T14:34:42.837Z,44.50
2022-07-29T14:37:15.798Z,44.90
2022-07-29T14:39:43.540Z,45.70
2022-07-29T14:42:12.822Z,46.60
2022-07-29T14:44:42.018Z,46.70
2022-07-29T14:47:09.808Z,46.50
2022-07-29T14:49:37.433Z,46.70
2022-07-29T14:52:04.506Z,48.30
2022-07-29T14:54:31.231Z,47.60
2022-07-29T14:56:58.483Z,47.90
2022-07-29T14:59:26.274Z,47.50
2022-07-29T15:01:53.212Z,47.30
2022-07-29T15:04:20.133Z,47.20
2022-07-29T15:06:47.324Z,47.00
2022-07-29T15:09:14.440Z,46.40
2022-07-29T15:11:41.429Z,45.80
2022-07-29T15:14:08.437Z,45.90
2022-07-29T15:16:43.472Z,45.90
2022-07-29T15:19:11.540Z,46.20
2022-07-29T15:21:48.081Z,45.80
2022-07-29T15:24:26.516Z,45.20
2022-07-29T15:26:53.263Z,45.10
2022-07-29T15:29:20.050Z,45.10
2022-07-29T15:31:46.879Z,46.10
2022-07-29T15:34:13.715Z,46.80
2022-07-29T15:36:56.039Z,46.90
2022-07-29T15:39:23.354Z,46.80
2022-07-29T15:41:50.610Z,47.70
2022-07-29T15:44:17.663Z,47.30
2022-07-29T15:47:03.164Z,47.60
2022-07-29T15:49:49.532Z,47.50
2022-07-29T15:52:26.060Z,48.00
2022-07-29T15:54:55.427Z,46.50
2022-07-29T15:57:22.674Z,45.90
2022-07-29T15:59:49.491Z,45.60
2022-07-29T16:02:16.189Z,46.20
2022-07-29T16:04:43.044Z,46.30
2022-07-29T16:07:09.792Z,45.80
2022-07-29T16:09:36.558Z,47.00
2022-07-29T16:12:04.983Z,48.60
2022-07-29T16:14:41.381Z,47.50
2022-07-29T16:17:08.541Z,48.10
2022-07-29T16:19:41.065Z,47.10
2022-07-29T16:22:07.883Z,47.50
2022-07-29T16:24:34.601Z,50.00
2022-07-29T16:27:01.845Z,52.60
2022-07-29T16:29:29.196Z,54.20
2022-07-29T16:31:56.055Z,54.90
2022-07-29T16:34:22.906Z,55.60
2022-07-29T16:36:49.651Z,55.70
2022-07-29T16:39:16.576Z,56.20
2022-07-29T16:41:43.309Z,56.40
2022-07-29T16:44:10.078Z,56.70
2022-07-29T16:46:37.369Z,56.90
2022-07-29T16:49:06.020Z,57.20
2022-07-29T16:51:32.957Z,57.10
2022-07-29T16:54:00.018Z,57.80
2022-07-29T16:56:26.785Z,57.30
2022-07-29T16:58:53.553Z,57.80
2022-07-29T17:01:20.443Z,58.00
2022-07-29T17:04:05.713Z,58.40
2022-07-29T17:06:35.087Z,58.90
2022-07-29T17:09:04.249Z,59.20
2022-07-29T17:11:52.554Z,59.20
2022-07-29T17:14:24.066Z,59.50
2022-07-29T17:17:02.615Z,59.40
2022-07-29T17:19:35.693Z,59.60
2022-07-29T17:22:12.597Z,60.20
2022-07-29T17:24:42.784Z,60.50
2022-07-29T17:27:10.331Z,60.80
2022-07-29T17:29:38.736Z,61.20
2022-07-29T17:32:07.471Z,61.80
2022-07-29T17:34:39.608Z,61.70
2022-07-29T17:37:08.134Z,61.90
2022-07-29T17:39:35.610Z,61.90
2022-07-29T17:42:04.069Z,62.10
2022-07-29T17:44:31.174Z,62.30
2022-07-29T17:46:59.658Z,63.10
2022-07-29T17:49:28.078Z,64.20
2022-07-29T17:51:58.969Z,64.90
2022-07-29T17:54:27.752Z,64.60
2022-07-29T17:56:54.587Z,64.00
2022-07-29T17:59:21.776Z,64.30
2022-07-29T18:01:48.605Z,64.90
2022-07-29T18:04:20.147Z,66.00
2022-07-29T18:06:47.061Z,67.50
2022-07-29T18:09:13.799Z,68.50
2022-07-29T18:11:40.638Z,69.20
2022-07-29T18:14:11.268Z,69.80
2022-07-29T18:16:38.401Z,70.40
2022-07-29T18:19:05.381Z,70.50
2022-07-29T18:21:42.644Z,69.90
2022-07-29T18:24:18.741Z,69.80
2022-07-29T18:26:45.507Z,70.10
2022-07-29T18:29:12.342Z,70.90
2022-07-29T18:31:41.061Z,73.00
2022-07-29T18:34:07.953Z,73.60
2022-07-29T18:36:34.761Z,74.10
2022-07-29T18:39:01.534Z,74.30
2022-07-29T18:41:29.139Z,74.70
2022-07-29T18:43:55.898Z,75.30
2022-07-29T18:46:22.760Z,75.60
2022-07-29T18:48:49.845Z,76.00
2022-07-29T18:51:16.669Z,76.40
2022-07-29T18:53:44.320Z,76.80
2022-07-29T18:56:11.090Z,77.10
2022-07-29T18:58:38.815Z,77.30
2022-07-29T19:01:06.075Z,77.60
2022-07-29T19:03:32.910Z,77.80
2022-07-29T19:05:59.761Z,77.80
2022-07-29T19:08:26.629Z,78.50
2022-07-29T19:10:53.390Z,78.60
2022-07-29T19:13:20.324Z,78.60
2022-07-29T19:15:47.215Z,78.60
2022-07-29T19:18:13.993Z,78.60
2022-07-29T19:20:41.982Z,78.50
2022-07-29T19:23:09.305Z,78.60
2022-07-29T19:25:37.094Z,78.70
2022-07-29T19:28:20.927Z,78.80
2022-07-29T19:30:47.929Z,78.80
2022-07-29T19:33:17.453Z,78.40
2022-07-29T19:35:45.247Z,78.60
2022-07-29T19:38:12.280Z,78.90
2022-07-29T19:40:39.298Z,79.00
2022-07-29T19:43:51.327Z,79.00
2022-07-29T19:45:53.802Z,78.50
2022-07-29T19:48:20.551Z,78.40
2022-07-29T19:50:47.383Z,78.40
2022-07-29T19:53:14.222Z,78.60
2022-07-29T19:55:41.946Z,78.80
2022-07-29T19:58:08.898Z,79.50
2022-07-29T20:00:35.662Z,79.90
2022-07-29T20:03:04.591Z,79.80
2022-07-29T20:05:31.909Z,79.90
2022-07-29T20:07:58.969Z,80.10
2022-07-29T20:10:25.869Z,80.00
2022-07-29T20:12:53.898Z,80.00
2022-07-29T20:15:22.365Z,79.70
2022-07-29T20:17:51.816Z,79.60
2022-07-29T20:20:23.003Z,79.60
2022-07-29T20:22:49.820Z,80.00
2022-07-29T20:25:16.685Z,80.60
2022-07-29T20:27:43.654Z,80.90
2022-07-29T20:30:13.337Z,81.10
2022-07-29T20:32:41.327Z,81.30
2022-07-29T20:35:08.873Z,81.10
2022-07-29T20:37:52.345Z,81.30
2022-07-29T20:40:22.493Z,81.70
2022-07-29T20:42:49.266Z,82.30
2022-07-29T20:45:16.050Z,82.70
2022-07-29T20:47:42.807Z,83.30
2022-07-29T20:50:10.117Z,83.40
2022-07-29T20:52:37.045Z,83.50
2022-07-29T20:55:04.065Z,83.30
2022-07-29T20:57:39.472Z,83.10
2022-07-29T21:00:07.478Z,83.80
2022-07-29T21:02:34.464Z,83.50
2022-07-29T21:05:01.355Z,84.10
2022-07-29T21:07:28.268Z,84.20
2022-07-29T21:09:55.003Z,84.70
2022-07-29T21:12:22.620Z,84.60
2022-07-29T21:14:49.771Z,84.50
2022-07-29T21:17:16.772Z,84.50
2022-07-29T21:19:43.551Z,85.70
2022-07-29T21:22:11.252Z,86.10
2022-07-29T21:24:38.081Z,87.60
2022-07-29T21:27:23.939Z,87.70
2022-07-29T21:29:50.912Z,88.80
2022-07-29T21:32:27.534Z,88.50
2022-07-29T21:34:57.717Z,88.80
2022-07-29T21:37:24.512Z,88.40
2022-07-29T21:39:51.279Z,88.90
2022-07-29T21:42:18.054Z,88.60
2022-07-29T21:44:45.423Z,88.20
2022-07-29T21:47:12.208Z,88.00
2022-07-29T21:49:39.204Z,88.90
2022-07-29T21:52:08.016Z,89.10
2022-07-29T21:54:35.920Z,89.10
2022-07-29T21:57:03.202Z,89.40
2022-07-29T21:59:30.471Z,88.40
2022-07-29T22:02:00.829Z,88.70
2022-07-29T22:04:31.545Z,89.10
2022-07-29T22:06:59.053Z,89.90
2022-07-29T22:09:27.259Z,90.70
2022-07-29T22:11:54.575Z,90.40
2022-07-29T22:14:22.155Z,89.90
2022-07-29T22:16:49.051Z,89.90
2022-07-29T22:19:15.855Z,89.70
2022-07-29T22:21:42.852Z,89.20
2022-07-29T22:24:10.571Z,89.40
2022-07-29T22:26:38.283Z,89.70
2022-07-29T22:29:05.589Z,89.90
2022-07-29T22:31:32.410Z,90.20
2022-07-29T22:33:59.306Z,90.30
2022-07-29T22:36:26.493Z,91.10
2022-07-29T22:38:53.261Z,90.90
2022-07-29T22:41:20.018Z,90.30
2022-07-29T22:43:46.820Z,90.50
2022-07-29T22:46:13.587Z,90.50
2022-07-29T22:48:40.388Z,90.70
2022-07-29T22:51:07.259Z,90.10
2022-07-29T22:53:34.074Z,90.10
2022-07-29T22:56:00.876Z,90.20
2022-07-29T22:58:27.656Z,90.10
2022-07-29T23:00:54.563Z,90.30
2022-07-29T23:03:21.741Z,90.20
2022-07-29T23:05:50.696Z,90.30
2022-07-29T23:08:18.990Z,90.90
2022-07-29T23:10:46.018Z,91.00
2022-07-29T23:13:13.232Z,91.20
2022-07-29T23:15:40.176Z,91.30
2022-07-29T23:18:07.001Z,91.00
2022-07-29T23:20:33.960Z,91.60
2022-07-29T23:23:00.823Z,90.90
2022-07-29T23:25:27.799Z,91.60
2022-07-29T23:27:54.668Z,91.50
2022-07-29T23:30:21.489Z,91.10
2022-07-29T23:32:48.290Z,91.00
2022-07-29T23:35:15.039Z,90.70
2022-07-29T23:37:41.824Z,90.70
2022-07-29T23:40:14.009Z,90.80
2022-07-29T23:42:42.262Z,90.90
2022-07-29T23:45:10.682Z,91.10
2022-07-29T23:47:37.544Z,91.30
2022-07-29T23:50:05.751Z,91.20
2022-07-29T23:52:32.609Z,91.40
2022-07-29T23:55:36.633Z,91.80
2022-07-29T23:57:46.079Z,92.30
